Time;durP1;ratioP1;P1;durP2;ratioP2;P2;SDS_P1;SDS_P2;PMS_P1;PMS_P2;Temp;Humidity;BMP_temperature;BMP_pressure;BME280_temperature;BME280_humidity;BME280_pressure;Samples;Min_cycle;Max_cycle;Signal;HPM_P1;HPM_P2
2021/05/18 00:00:21;;;;;;;16.90;6.90;;;;;;;;;;5029664;28;20238;-68
2021/05/18 00:02:46;;;;;;;16.30;7.93;;;;;;;;;;5023112;28;20247;-69
2021/05/18 00:05:14;;;;;;;17.13;8.07;;;;;;;;;;5030921;28;20182;-68
2021/05/18 00:07:46;;;;;;;18.20;8.25;;;;;;;;;;5022236;28;20255;-69
2021/05/18 00:12:55;;;;;;;15.75;8.18;;;;;;;;;;5025358;28;20238;-69
2021/05/18 00:15:21;;;;;;;24.02;8.60;;;;;;;;;;5027729;28;20213;-69
2021/05/18 00:17:47;;;;;;;14.30;8.40;;;;;;;;;;5023251;28;20213;-69
2021/05/18 00:20:16;;;;;;;19.55;9.05;;;;;;;;;;5031202;28;20186;-69
2021/05/18 00:22:42;;;;;;;20.25;8.57;;;;;;;;;;5022616;28;20212;-69
2021/05/18 00:25:09;;;;;;;18.17;8.90;;;;;;;;;;5029704;28;20193;-69
2021/05/18 00:27:35;;;;;;;17.95;9.15;;;;;;;;;;5020368;28;20182;-69
2021/05/18 00:30:00;;;;;;;17.98;9.13;;;;;;;;;;5030995;28;20204;-68
2021/05/18 00:32:26;;;;;;;21.00;9.48;;;;;;;;;;5023593;28;20193;-68
2021/05/18 00:34:56;;;;;;;24.23;9.45;;;;;;;;;;5029676;28;20212;-69
2021/05/18 00:37:24;;;;;;;22.48;9.77;;;;;;;;;;5030006;28;20588;-69
2021/05/18 00:39:50;;;;;;;21.13;10.52;;;;;;;;;;5022960;28;20195;-69
2021/05/18 00:42:17;;;;;;;23.52;9.70;;;;;;;;;;5028768;28;20193;-69
2021/05/18 00:44:43;;;;;;;32.85;10.57;;;;;;;;;;5021420;28;20190;-69
2021/05/18 00:47:09;;;;;;;26.25;11.68;;;;;;;;;;5026740;28;20249;-69
2021/05/18 00:49:38;;;;;;;26.87;11.53;;;;;;;;;;5020646;28;20216;-69
2021/05/18 00:52:06;;;;;;;25.77;11.40;;;;;;;;;;5027671;28;20276;-69
2021/05/18 00:54:55;;;;;;;26.27;11.02;;;;;;;;;;5022799;28;20229;-69
2021/05/18 01:00:06;;;;;;;18.17;10.40;;;;;;;;;;5018448;28;20706;-69
2021/05/18 01:02:31;;;;;;;21.10;10.27;;;;;;;;;;5030501;28;20209;-69
2021/05/18 01:05:07;;;;;;;18.13;9.80;;;;;;;;;;5021335;28;20625;-69
2021/05/18 01:07:34;;;;;;;19.30;10.27;;;;;;;;;;5031134;28;20529;-69
2021/05/18 01:10:00;;;;;;;28.23;11.27;;;;;;;;;;5021925;28;20555;-70
2021/05/18 01:12:25;;;;;;;27.37;11.23;;;;;;;;;;5030982;28;20181;-69
2021/05/18 01:14:50;;;;;;;26.47;10.73;;;;;;;;;;5021858;28;20688;-69
2021/05/18 01:17:16;;;;;;;22.23;11.07;;;;;;;;;;5027903;28;20193;-69
2021/05/18 01:19:41;;;;;;;32.08;12.15;;;;;;;;;;5029557;28;20192;-69
2021/05/18 01:22:07;;;;;;;27.05;12.05;;;;;;;;;;5019839;28;20198;-70
2021/05/18 01:24:34;;;;;;;25.60;11.35;;;;;;;;;;5027798;28;20182;-69
2021/05/18 01:26:59;;;;;;;24.00;11.33;;;;;;;;;;5020284;28;20634;-69
2021/05/18 01:29:25;;;;;;;20.63;12.60;;;;;;;;;;5027740;28;20221;-69
2021/05/18 01:31:50;;;;;;;26.83;11.18;;;;;;;;;;5019252;28;23974;-69
2021/05/18 01:34:16;;;;;;;32.43;12.00;;;;;;;;;;5030731;28;20205;-69
2021/05/18 01:36:43;;;;;;;26.23;12.35;;;;;;;;;;5021531;28;20661;-69
2021/05/18 01:44:28;;;;;;;30.13;13.33;;;;;;;;;;5025708;28;20672;-69
2021/05/18 01:46:53;;;;;;;29.40;16.00;;;;;;;;;;5020644;28;20230;-69
2021/05/18 01:49:19;;;;;;;37.77;17.50;;;;;;;;;;5026704;28;20201;-69
2021/05/18 01:51:51;;;;;;;40.83;18.43;;;;;;;;;;5020479;28;24109;-69
2021/05/18 01:54:24;;;;;;;34.00;17.13;;;;;;;;;;5027658;28;20283;-69
2021/05/18 01:59:20;;;;;;;36.20;17.50;;;;;;;;;;5026743;28;20198;-69
2021/05/18 02:01:49;;;;;;;40.97;15.77;;;;;;;;;;5025214;28;21814;-69
2021/05/18 02:04:39;;;;;;;41.67;17.23;;;;;;;;;;5020995;28;20181;-69
2021/05/18 02:07:13;;;;;;;30.07;15.07;;;;;;;;;;5025447;28;20182;-69
2021/05/18 02:09:39;;;;;;;39.60;15.43;;;;;;;;;;5018147;28;20812;-69
2021/05/18 02:12:05;;;;;;;42.90;15.10;;;;;;;;;;5026652;28;20260;-70
2021/05/18 02:14:32;;;;;;;39.57;15.80;;;;;;;;;;5017523;28;20596;-69
2021/05/18 02:17:17;;;;;;;40.57;14.57;;;;;;;;;;5028016;28;20205;-69
2021/05/18 02:25:20;;;;;;;35.90;15.73;;;;;;;;;;5018775;28;20288;-69
2021/05/18 02:27:45;;;;;;;45.10;16.93;;;;;;;;;;5031038;28;20174;-69
2021/05/18 02:30:13;;;;;;;43.03;16.20;;;;;;;;;;5017768;28;20198;-69
2021/05/18 02:32:39;;;;;;;48.90;16.80;;;;;;;;;;5027795;28;20210;-69
2021/05/18 02:35:07;;;;;;;41.90;17.00;;;;;;;;;;5019999;28;20761;-69
2021/05/18 02:37:32;;;;;;;36.73;16.90;;;;;;;;;;5030021;28;20181;-69
2021/05/18 02:39:58;;;;;;;43.03;17.90;;;;;;;;;;5017912;28;20601;-69
2021/05/18 02:42:23;;;;;;;45.10;17.23;;;;;;;;;;5027444;28;20270;-69
2021/05/18 02:45:01;;;;;;;38.23;16.83;;;;;;;;;;5018987;28;20197;-69
2021/05/18 02:50:11;;;;;;;34.45;15.05;;;;;;;;;;5017218;28;20204;-69
2021/05/18 02:52:39;;;;;;;31.33;13.63;;;;;;;;;;5027343;28;20224;-69
2021/05/18 02:55:05;;;;;;;40.47;16.45;;;;;;;;;;5017249;28;20222;-69
2021/05/18 02:57:34;;;;;;;40.72;15.55;;;;;;;;;;5029893;28;20186;-69
2021/05/18 03:00:02;;;;;;;34.42;15.13;;;;;;;;;;5026519;28;20192;-69
2021/05/18 03:02:27;;;;;;;38.63;16.67;;;;;;;;;;5020401;28;20216;-69
2021/05/18 03:04:53;;;;;;;38.80;14.65;;;;;;;;;;5027368;28;20586;-69
2021/05/18 03:07:18;;;;;;;34.65;14.68;;;;;;;;;;5018801;28;20196;-69
2021/05/18 03:09:44;;;;;;;44.80;16.00;;;;;;;;;;5027502;28;20208;-70
2021/05/18 03:12:09;;;;;;;35.85;16.25;;;;;;;;;;5019141;28;20236;-69
2021/05/18 03:14:35;;;;;;;42.63;16.05;;;;;;;;;;5025322;28;20249;-69
2021/05/18 03:17:02;;;;;;;37.35;15.35;;;;;;;;;;5018423;28;20777;-69
2021/05/18 03:19:28;;;;;;;34.88;16.67;;;;;;;;;;5027380;28;20624;-69
2021/05/18 03:21:53;;;;;;;39.08;15.68;;;;;;;;;;5020951;28;20251;-69
2021/05/18 03:24:18;;;;;;;35.80;15.10;;;;;;;;;;5026886;28;20269;-69
2021/05/18 03:26:48;;;;;;;32.03;14.75;;;;;;;;;;5018748;28;20543;-69
2021/05/18 03:29:23;;;;;;;39.95;16.05;;;;;;;;;;5025216;28;20193;-69
2021/05/18 03:34:35;;;;;;;42.33;16.02;;;;;;;;;;5025969;28;20778;-69
2021/05/18 03:37:11;;;;;;;34.67;15.40;;;;;;;;;;5026570;28;20264;-69
2021/05/18 03:39:38;;;;;;;37.03;15.10;;;;;;;;;;5021267;28;20281;-69
2021/05/18 03:42:08;;;;;;;33.95;14.93;;;;;;;;;;5025843;28;20622;-68
2021/05/18 03:44:58;;;;;;;35.00;14.88;;;;;;;;;;5018604;28;20604;-69
2021/05/18 03:53:18;;;;;;;35.97;14.73;;;;;;;;;;5029303;28;20204;-69
2021/05/18 04:11:51;;;;;;;34.13;14.73;;;;;;;;;;5027199;28;20221;-69
2021/05/18 04:17:01;;;;;;;34.88;14.43;;;;;;;;;;5029189;28;20232;-68
2021/05/18 04:49:44;;;;;;;28.05;15.35;;;;;;;;;;5028427;28;20620;-69
2021/05/18 04:52:14;;;;;;;29.77;17.17;;;;;;;;;;5020291;28;20194;-69
2021/05/18 04:59:55;;;;;;;30.20;14.90;;;;;;;;;;5026834;28;20357;-69
2021/05/18 05:15:31;;;;;;;32.63;13.98;;;;;;;;;;5027913;28;20237;-69
2021/05/18 05:17:56;;;;;;;32.83;13.93;;;;;;;;;;5021248;28;20221;-70
2021/05/18 05:20:22;;;;;;;28.75;14.35;;;;;;;;;;5026229;28;20190;-69
2021/05/18 05:22:47;;;;;;;30.45;14.48;;;;;;;;;;5022395;28;20201;-69
2021/05/18 05:25:13;;;;;;;26.83;13.52;;;;;;;;;;5024837;28;20205;-70
2021/05/18 05:27:38;;;;;;;35.78;16.13;;;;;;;;;;5027992;28;20266;-69
2021/05/18 05:30:04;;;;;;;30.05;14.77;;;;;;;;;;5017835;28;20193;-70
2021/05/18 05:32:29;;;;;;;29.60;14.20;;;;;;;;;;5024926;28;21446;-69
2021/05/18 05:34:55;;;;;;;25.88;13.65;;;;;;;;;;5018038;28;20213;-69
2021/05/18 05:37:20;;;;;;;33.85;14.07;;;;;;;;;;5026276;28;20189;-69
2021/05/18 05:39:45;;;;;;;31.35;15.48;;;;;;;;;;5019417;28;20200;-69
2021/05/18 05:42:11;;;;;;;31.58;14.55;;;;;;;;;;5027502;28;20189;-71
2021/05/18 05:44:36;;;;;;;33.65;15.32;;;;;;;;;;5018780;28;20181;-70
2021/05/18 05:47:01;;;;;;;31.08;15.30;;;;;;;;;;5029558;28;20228;-71
2021/05/18 05:49:27;;;;;;;30.33;14.98;;;;;;;;;;5020888;28;20276;-70
2021/05/18 05:51:52;;;;;;;26.27;15.02;;;;;;;;;;5026768;28;20181;-70
2021/05/18 05:54:19;;;;;;;33.30;16.25;;;;;;;;;;5022073;28;20299;-70
2021/05/18 05:56:44;;;;;;;32.55;16.02;;;;;;;;;;5023575;28;20237;-70
2021/05/18 05:59:10;;;;;;;34.15;16.55;;;;;;;;;;5025604;28;20292;-70
2021/05/18 06:01:36;;;;;;;36.00;16.75;;;;;;;;;;5018917;28;20217;-70
2021/05/18 06:04:01;;;;;;;28.63;14.68;;;;;;;;;;5024025;28;20675;-70
2021/05/18 06:06:27;;;;;;;33.08;15.60;;;;;;;;;;5018981;28;20329;-70
2021/05/18 06:08:53;;;;;;;34.20;18.00;;;;;;;;;;5028318;28;20194;-70
2021/05/18 06:14:10;;;;;;;44.00;19.92;;;;;;;;;;5025565;28;20739;-70
2021/05/18 06:46:08;;;;;;;36.22;18.77;;;;;;;;;;5025112;28;20596;-70
2021/05/18 06:48:34;;;;;;;38.95;19.60;;;;;;;;;;5016942;28;20228;-70
2021/05/18 06:50:59;;;;;;;37.55;18.33;;;;;;;;;;5021704;28;20185;-70
2021/05/18 06:53:25;;;;;;;36.17;19.70;;;;;;;;;;5017712;28;20197;-70
2021/05/18 06:55:52;;;;;;;31.25;18.60;;;;;;;;;;5024601;28;20182;-75
2021/05/18 07:01:09;;;;;;;36.35;18.75;;;;;;;;;;5025427;28;20189;-70
2021/05/18 07:03:55;;;;;;;36.13;19.20;;;;;;;;;;5015116;28;20194;-70
2021/05/18 07:09:05;;;;;;;39.22;20.77;;;;;;;;;;5011823;28;20350;-71
2021/05/18 07:11:31;;;;;;;39.97;20.90;;;;;;;;;;5024648;28;20640;-71
2021/05/18 07:13:56;;;;;;;38.05;20.40;;;;;;;;;;5015918;28;20208;-71
2021/05/18 07:16:22;;;;;;;40.53;21.98;;;;;;;;;;5027717;28;20208;-68
2021/05/18 07:18:48;;;;;;;42.58;22.38;;;;;;;;;;5020522;28;20214;-70
2021/05/18 07:21:13;;;;;;;48.60;21.63;;;;;;;;;;5023212;28;20198;-70
2021/05/18 07:23:39;;;;;;;42.22;23.05;;;;;;;;;;5027902;28;20205;-71
2021/05/18 07:26:05;;;;;;;49.58;23.48;;;;;;;;;;5016664;28;20668;-71
2021/05/18 07:28:35;;;;;;;48.47;23.00;;;;;;;;;;5025945;28;20194;-72
2021/05/18 07:31:02;;;;;;;45.63;23.33;;;;;;;;;;5019048;28;20193;-70
2021/05/18 07:33:28;;;;;;;43.15;22.25;;;;;;;;;;5024853;28;20657;-71
2021/05/18 07:35:58;;;;;;;51.17;24.70;;;;;;;;;;5018312;28;20287;-71
2021/05/18 07:38:28;;;;;;;47.67;23.42;;;;;;;;;;5024132;28;20185;-72
2021/05/18 07:40:55;;;;;;;46.47;23.90;;;;;;;;;;5017707;28;20715;-71
2021/05/18 07:43:20;;;;;;;41.42;23.15;;;;;;;;;;5024677;28;20209;-71
2021/05/18 07:46:01;;;;;;;33.03;20.98;;;;;;;;;;5019561;28;20321;-71
2021/05/18 07:48:37;;;;;;;35.33;21.67;;;;;;;;;;5022266;28;20230;-69
2021/05/18 08:07:08;;;;;;;29.35;19.20;;;;;;;;;;5016126;28;20224;-69
2021/05/18 08:09:39;;;;;;;28.23;18.95;;;;;;;;;;5026060;28;20756;-69
2021/05/18 08:12:05;;;;;;;30.38;18.15;;;;;;;;;;5017513;28;20638;-69
2021/05/18 08:14:32;;;;;;;28.67;17.65;;;;;;;;;;5027717;28;20213;-69
2021/05/18 08:17:23;;;;;;;26.48;16.50;;;;;;;;;;5021719;28;20186;-69
2021/05/18 09:36:08;;;;;;;12.48;7.70;;;;;;;;;;5028527;28;20700;-68
2021/05/18 09:49:23;;;;;;;12.48;8.88;;;;;;;;;;5020718;28;20320;-69
2021/05/18 10:36:05;;;;;;;9.45;7.22;;;;;;;;;;5012493;28;20275;-69
2021/05/18 10:38:39;;;;;;;10.85;7.45;;;;;;;;;;5026433;28;20190;-69
2021/05/18 10:41:17;;;;;;;9.13;7.72;;;;;;;;;;5018008;28;20664;-69
2021/05/18 10:43:56;;;;;;;9.13;7.45;;;;;;;;;;5026337;28;20189;-69
2021/05/18 10:46:27;;;;;;;12.77;8.52;;;;;;;;;;5018000;28;20209;-69
2021/05/18 10:48:55;;;;;;;12.85;8.77;;;;;;;;;;5023106;28;20221;-69
2021/05/18 10:51:29;;;;;;;11.73;9.18;;;;;;;;;;5017344;28;20186;-69
2021/05/18 10:54:18;;;;;;;13.85;10.52;;;;;;;;;;5025820;28;20842;-69
2021/05/18 10:57:02;;;;;;;15.48;10.70;;;;;;;;;;5018246;28;20190;-68
2021/05/18 10:59:48;;;;;;;15.70;11.73;;;;;;;;;;5025550;28;20634;-69
2021/05/18 11:02:25;;;;;;;14.73;11.00;;;;;;;;;;5017022;28;20295;-68
2021/05/18 11:04:55;;;;;;;17.17;11.82;;;;;;;;;;5027298;28;20170;-68
2021/05/18 11:07:29;;;;;;;12.60;10.30;;;;;;;;;;5017720;28;20205;-69
2021/05/18 11:09:54;;;;;;;14.27;11.32;;;;;;;;;;5027609;28;20703;-69
2021/05/18 11:12:24;;;;;;;14.60;9.73;;;;;;;;;;5018997;28;20186;-68
2021/05/18 11:14:49;;;;;;;16.40;10.63;;;;;;;;;;5027406;28;20665;-70
2021/05/18 11:17:27;;;;;;;12.40;10.10;;;;;;;;;;5018800;28;20293;-69
2021/05/18 11:20:10;;;;;;;13.68;10.23;;;;;;;;;;5027631;28;20195;-69
2021/05/18 11:26:03;;;;;;;12.73;8.48;;;;;;;;;;5028573;28;20208;-69
2021/05/18 11:28:37;;;;;;;11.05;8.30;;;;;;;;;;5019212;28;20213;-69
2021/05/18 11:31:13;;;;;;;9.57;8.25;;;;;;;;;;5030947;28;20551;-69
2021/05/18 11:34:03;;;;;;;12.02;9.30;;;;;;;;;;5023310;28;20201;-74
2021/05/18 11:36:40;;;;;;;13.52;9.48;;;;;;;;;;5032937;28;20205;-69
2021/05/18 11:39:14;;;;;;;14.43;8.93;;;;;;;;;;5022881;28;20197;-69
2021/05/18 11:41:41;;;;;;;10.30;8.77;;;;;;;;;;5031407;28;20196;-68
2021/05/18 11:44:10;;;;;;;16.92;9.30;;;;;;;;;;5024457;28;20194;-68
2021/05/18 11:46:43;;;;;;;12.90;9.05;;;;;;;;;;5032397;28;20186;-68
2021/05/18 11:49:11;;;;;;;12.93;9.32;;;;;;;;;;5025109;28;20216;-68
2021/05/18 11:51:48;;;;;;;12.43;9.20;;;;;;;;;;5030699;28;20270;-69
2021/05/18 11:54:16;;;;;;;14.18;9.15;;;;;;;;;;5020688;28;20681;-68
2021/05/18 11:56:42;;;;;;;11.98;9.40;;;;;;;;;;5030254;28;20190;-68
2021/05/18 11:59:12;;;;;;;12.00;9.57;;;;;;;;;;5022806;28;20188;-69
2021/05/18 12:01:40;;;;;;;11.88;8.98;;;;;;;;;;5031160;28;20213;-68
2021/05/18 12:04:17;;;;;;;11.13;8.60;;;;;;;;;;5020382;28;20185;-69
2021/05/18 12:06:59;;;;;;;10.77;8.57;;;;;;;;;;5028910;28;20251;-68
2021/05/18 12:09:26;;;;;;;14.43;9.60;;;;;;;;;;5021426;28;20196;-68
2021/05/18 12:11:55;;;;;;;11.38;9.20;;;;;;;;;;5024747;28;20185;-68
2021/05/18 12:14:23;;;;;;;14.80;9.65;;;;;;;;;;5031690;28;20246;-68
2021/05/18 12:16:49;;;;;;;13.27;9.48;;;;;;;;;;5024742;28;20189;-69
2021/05/18 12:19:16;;;;;;;12.43;9.55;;;;;;;;;;5030221;28;20645;-69
2021/05/18 12:21:45;;;;;;;15.27;9.32;;;;;;;;;;5022832;28;20219;-68
2021/05/18 12:24:16;;;;;;;12.25;9.20;;;;;;;;;;5030416;28;20215;-68
2021/05/18 12:26:47;;;;;;;16.90;10.50;;;;;;;;;;5023629;28;20285;-68
2021/05/18 12:29:25;;;;;;;13.93;9.45;;;;;;;;;;5030363;28;20219;-68
2021/05/18 12:31:51;;;;;;;12.23;8.43;;;;;;;;;;5021474;28;20205;-67
2021/05/18 12:34:30;;;;;;;13.38;8.20;;;;;;;;;;5029801;28;20210;-68
2021/05/18 12:36:56;;;;;;;13.18;9.48;;;;;;;;;;5020400;28;20364;-68
2021/05/18 12:39:22;;;;;;;12.75;8.57;;;;;;;;;;5031971;28;20197;-69
2021/05/18 12:41:59;;;;;;;13.98;10.15;;;;;;;;;;5019429;28;20193;-68
2021/05/18 12:44:28;;;;;;;14.13;10.35;;;;;;;;;;5031705;28;20287;-68
2021/05/18 12:46:54;;;;;;;10.75;8.68;;;;;;;;;;5019644;28;20266;-67
2021/05/18 12:49:37;;;;;;;11.75;8.82;;;;;;;;;;5027203;28;20342;-67
2021/05/18 12:52:16;;;;;;;12.23;8.73;;;;;;;;;;5021522;28;20197;-67
2021/05/18 12:54:47;;;;;;;9.70;8.35;;;;;;;;;;5028846;28;20213;-69
2021/05/18 12:57:16;;;;;;;9.52;8.52;;;;;;;;;;5021266;28;20643;-68
2021/05/18 13:00:11;;;;;;;11.23;7.93;;;;;;;;;;5029154;28;20197;-68
2021/05/18 13:02:39;;;;;;;13.65;8.82;;;;;;;;;;5020206;28;20213;-68
2021/05/18 13:05:10;;;;;;;10.52;8.98;;;;;;;;;;5036563;28;20711;-68
2021/05/18 13:07:36;;;;;;;11.27;9.23;;;;;;;;;;5020194;28;20284;-68
2021/05/18 13:10:19;;;;;;;11.60;9.02;;;;;;;;;;5028849;28;20265;-68
2021/05/18 13:12:45;;;;;;;13.27;9.45;;;;;;;;;;5022234;28;20272;-68
2021/05/18 13:15:20;;;;;;;10.70;8.73;;;;;;;;;;4519872;28;10002920;-68
2021/05/18 13:17:57;;;;;;;10.95;8.63;;;;;;;;;;5021240;28;20178;-68
2021/05/18 13:20:23;;;;;;;10.50;9.07;;;;;;;;;;5027544;28;20715;-69
2021/05/18 13:22:57;;;;;;;14.88;8.98;;;;;;;;;;5021013;28;20525;-69
2021/05/18 13:28:07;;;;;;;10.18;8.68;;;;;;;;;;5024147;28;20683;-70
2021/05/18 13:30:33;;;;;;;10.05;8.30;;;;;;;;;;5021497;28;20647;-68
2021/05/18 13:32:59;;;;;;;10.55;8.95;;;;;;;;;;5024838;28;20637;-68
2021/05/18 13:35:29;;;;;;;10.48;8.35;;;;;;;;;;5017491;28;20209;-68
2021/05/18 13:37:54;;;;;;;15.32;9.40;;;;;;;;;;5027729;28;20561;-68
2021/05/18 13:40:20;;;;;;;12.30;9.77;;;;;;;;;;5021157;28;20670;-69
2021/05/18 13:42:50;;;;;;;11.95;9.23;;;;;;;;;;5029647;28;20648;-69
2021/05/18 13:45:15;;;;;;;11.05;9.35;;;;;;;;;;5020504;28;20231;-70
2021/05/18 13:47:41;;;;;;;12.48;9.40;;;;;;;;;;5030710;28;20233;-69
2021/05/18 13:50:07;;;;;;;11.80;9.05;;;;;;;;;;5020968;28;20202;-69
2021/05/18 13:52:32;;;;;;;11.30;8.95;;;;;;;;;;5030110;28;20189;-69
2021/05/18 13:54:58;;;;;;;8.90;7.25;;;;;;;;;;5021455;28;22329;-70
2021/05/18 13:57:23;;;;;;;11.73;8.60;;;;;;;;;;5028940;28;20205;-69
2021/05/18 13:59:49;;;;;;;11.73;9.27;;;;;;;;;;5029107;28;20190;-69
2021/05/18 14:02:16;;;;;;;12.60;9.38;;;;;;;;;;5019958;28;20236;-69
2021/05/18 14:04:42;;;;;;;12.25;9.45;;;;;;;;;;5030321;28;20189;-68
2021/05/18 14:08:23;;;;;;;13.43;9.68;;;;;;;;;;5022315;28;20186;-68
2021/05/18 14:10:51;;;;;;;11.38;8.70;;;;;;;;;;5021465;28;20205;-67
2021/05/18 14:13:16;;;;;;;9.77;8.75;;;;;;;;;;5025249;28;20788;-68
2021/05/18 14:15:42;;;;;;;11.77;9.38;;;;;;;;;;5029493;28;20245;-69
2021/05/18 14:18:10;;;;;;;11.55;9.23;;;;;;;;;;5019448;28;20186;-68
2021/05/18 14:20:36;;;;;;;12.02;9.10;;;;;;;;;;5030471;28;20789;-69
2021/05/18 14:23:02;;;;;;;12.68;8.85;;;;;;;;;;5021283;28;20281;-69
2021/05/18 14:25:27;;;;;;;12.73;9.55;;;;;;;;;;5031300;28;20276;-69
2021/05/18 14:27:53;;;;;;;11.15;9.95;;;;;;;;;;5018569;28;20300;-69
2021/05/18 14:30:18;;;;;;;14.43;9.45;;;;;;;;;;5028325;28;20250;-69
2021/05/18 14:32:44;;;;;;;12.88;9.35;;;;;;;;;;5022322;28;20253;-69
2021/05/18 14:35:12;;;;;;;11.50;8.68;;;;;;;;;;5028554;28;20209;-68
2021/05/18 14:37:41;;;;;;;9.90;7.88;;;;;;;;;;5020519;28;20190;-69
2021/05/18 14:40:26;;;;;;;8.23;7.28;;;;;;;;;;5028124;28;20198;-68
2021/05/18 14:45:20;;;;;;;9.98;7.60;;;;;;;;;;5026925;28;20233;-67
2021/05/18 14:48:06;;;;;;;9.48;6.45;;;;;;;;;;5022189;28;20222;-67
2021/05/18 14:56:13;;;;;;;9.38;6.70;;;;;;;;;;5027399;28;20198;-68
2021/05/18 14:58:38;;;;;;;12.82;8.30;;;;;;;;;;5024080;28;20186;-67
2021/05/18 15:01:04;;;;;;;11.02;7.90;;;;;;;;;;5028419;28;20196;-68
2021/05/18 15:03:32;;;;;;;9.98;7.68;;;;;;;;;;5024307;28;20584;-69
2021/05/18 15:05:59;;;;;;;8.45;6.97;;;;;;;;;;5025322;28;20325;-67
2021/05/18 15:08:25;;;;;;;9.10;6.78;;;;;;;;;;5024816;28;20193;-68
2021/05/18 15:10:53;;;;;;;10.30;6.90;;;;;;;;;;5021178;28;20525;-69
2021/05/18 15:13:18;;;;;;;8.65;6.18;;;;;;;;;;5029941;28;20536;-70
2021/05/18 15:15:43;;;;;;;7.20;5.40;;;;;;;;;;5021189;28;20285;-69
2021/05/18 15:18:10;;;;;;;6.22;4.97;;;;;;;;;;5028286;28;20303;-69
2021/05/18 15:20:35;;;;;;;7.18;5.00;;;;;;;;;;5021481;28;20262;-68
2021/05/18 15:23:00;;;;;;;7.53;4.60;;;;;;;;;;5029731;28;20190;-69
2021/05/18 15:25:26;;;;;;;6.25;3.83;;;;;;;;;;5019803;28;20190;-68
2021/05/18 15:27:51;;;;;;;4.78;3.08;;;;;;;;;;5029933;28;20185;-69
2021/05/18 15:30:17;;;;;;;1.95;1.30;;;;;;;;;;5020268;28;20197;-69
2021/05/18 15:32:42;;;;;;;2.58;1.63;;;;;;;;;;5030000;28;20356;-69
2021/05/18 15:35:08;;;;;;;3.83;1.83;;;;;;;;;;5019625;28;20252;-69
2021/05/18 15:37:34;;;;;;;4.22;2.15;;;;;;;;;;5029946;28;20207;-69
2021/05/18 15:39:59;;;;;;;4.85;2.00;;;;;;;;;;5027438;28;20771;-68
2021/05/18 15:42:25;;;;;;;2.83;1.92;;;;;;;;;;5016563;28;20236;-68
2021/05/18 15:44:51;;;;;;;3.40;1.90;;;;;;;;;;5029043;28;20217;-69
2021/05/18 15:47:16;;;;;;;2.80;1.92;;;;;;;;;;4330582;28;10000862;-69
2021/05/18 15:49:41;;;;;;;1.50;1.13;;;;;;;;;;5025081;28;20308;-67
2021/05/18 15:52:07;;;;;;;1.50;1.30;;;;;;;;;;5015462;28;20337;-69
2021/05/18 15:54:33;;;;;;;2.90;1.20;;;;;;;;;;5026342;28;20696;-69
2021/05/18 15:56:59;;;;;;;2.05;1.55;;;;;;;;;;5017293;28;20200;-69
2021/05/18 15:59:25;;;;;;;3.25;2.30;;;;;;;;;;5026096;28;21507;-68
2021/05/18 16:01:50;;;;;;;2.83;2.45;;;;;;;;;;5016019;28;20657;-68
2021/05/18 16:04:15;;;;;;;2.85;2.30;;;;;;;;;;5024853;28;20194;-67
2021/05/18 16:06:42;;;;;;;3.95;2.83;;;;;;;;;;5017943;28;20189;-68
2021/05/18 16:09:08;;;;;;;5.63;4.05;;;;;;;;;;4676822;28;10000498;-68
2021/05/18 16:11:34;;;;;;;6.47;4.00;;;;;;;;;;5023913;28;20170;-69
2021/05/18 16:13:59;;;;;;;7.38;4.20;;;;;;;;;;5016959;28;20247;-69
2021/05/18 16:16:25;;;;;;;7.28;4.97;;;;;;;;;;5025248;28;20182;-68
2021/05/18 16:18:51;;;;;;;7.47;5.70;;;;;;;;;;5021350;28;20542;-69
2021/05/18 16:21:18;;;;;;;6.05;4.60;;;;;;;;;;5019605;28;20598;-69
2021/05/18 16:23:48;;;;;;;5.60;4.07;;;;;;;;;;5019222;28;20192;-69
2021/05/18 16:26:14;;;;;;;6.60;4.45;;;;;;;;;;5024841;28;20451;-69
2021/05/18 16:28:40;;;;;;;5.63;3.22;;;;;;;;;;5021276;28;20250;-68
2021/05/18 16:31:07;;;;;;;4.45;3.03;;;;;;;;;;5023329;28;20200;-69
2021/05/18 16:33:34;;;;;;;3.83;3.00;;;;;;;;;;5024241;28;20189;-68
2021/05/18 16:35:59;;;;;;;4.30;3.10;;;;;;;;;;5030641;28;20347;-69
2021/05/18 16:38:25;;;;;;;6.63;3.85;;;;;;;;;;5024001;28;20270;-68
2021/05/18 16:40:53;;;;;;;13.38;4.05;;;;;;;;;;5031486;28;20634;-68
2021/05/18 16:43:23;;;;;;;15.55;4.55;;;;;;;;;;5029533;28;20320;-69
2021/05/18 16:45:50;;;;;;;12.32;3.95;;;;;;;;;;5023879;28;20280;-68
2021/05/18 16:48:15;;;;;;;11.20;3.90;;;;;;;;;;5031974;28;20705;-70
2021/05/18 16:50:41;;;;;;;12.88;4.30;;;;;;;;;;5025036;28;20293;-69
2021/05/18 16:53:07;;;;;;;5.25;4.00;;;;;;;;;;5034114;28;20186;-70
2021/05/18 16:55:32;;;;;;;5.80;4.40;;;;;;;;;;5024941;28;20716;-70
2021/05/18 16:57:58;;;;;;;5.47;3.97;;;;;;;;;;5031350;28;20268;-69
2021/05/18 17:00:24;;;;;;;5.90;4.57;;;;;;;;;;5025176;28;20240;-69
2021/05/18 17:02:49;;;;;;;6.82;5.07;;;;;;;;;;5029874;28;20213;-69
2021/05/18 17:05:15;;;;;;;13.60;5.85;;;;;;;;;;5021417;28;20190;-67
2021/05/18 17:07:40;;;;;;;21.25;6.28;;;;;;;;;;5031038;28;20197;-68
2021/05/18 17:10:06;;;;;;;6.25;4.78;;;;;;;;;;5023625;28;22529;-68
2021/05/18 17:12:32;;;;;;;12.38;5.07;;;;;;;;;;5030773;28;20268;-67
2021/05/18 17:14:57;;;;;;;8.40;4.90;;;;;;;;;;5031878;28;20237;-67
2021/05/18 17:17:22;;;;;;;5.43;4.53;;;;;;;;;;5024631;28;20269;-68
2021/05/18 17:19:48;;;;;;;7.35;4.82;;;;;;;;;;5029559;28;20196;-68
2021/05/18 17:22:15;;;;;;;8.63;4.85;;;;;;;;;;5022776;28;20274;-67
2021/05/18 17:24:41;;;;;;;5.97;4.60;;;;;;;;;;5033547;28;20185;-69
2021/05/18 17:27:07;;;;;;;6.40;5.00;;;;;;;;;;5020565;28;20216;-68
2021/05/18 17:29:33;;;;;;;5.63;3.95;;;;;;;;;;5033233;28;20216;-66
2021/05/18 17:31:59;;;;;;;4.85;3.80;;;;;;;;;;5024377;28;20576;-68
2021/05/18 17:34:25;;;;;;;3.67;2.88;;;;;;;;;;5030898;28;20668;-67
2021/05/18 17:36:51;;;;;;;4.63;3.08;;;;;;;;;;5023653;28;20189;-68
2021/05/18 17:39:18;;;;;;;4.13;3.53;;;;;;;;;;5028694;28;20312;-68
2021/05/18 17:41:44;;;;;;;3.45;2.80;;;;;;;;;;5019576;28;20197;-67
2021/05/18 17:44:10;;;;;;;5.35;3.00;;;;;;;;;;5028040;28;20276;-67
2021/05/18 17:46:36;;;;;;;3.58;3.08;;;;;;;;;;5029523;28;20761;-68
2021/05/18 17:49:05;;;;;;;8.82;3.38;;;;;;;;;;5021904;28;20280;-69
2021/05/18 17:51:33;;;;;;;4.95;3.05;;;;;;;;;;5031173;28;20178;-67
2021/05/18 17:53:59;;;;;;;7.82;3.38;;;;;;;;;;5022248;28;20213;-68
2021/05/18 17:56:25;;;;;;;3.85;3.13;;;;;;;;;;5030893;28;20177;-67
2021/05/18 17:58:50;;;;;;;4.10;3.22;;;;;;;;;;5020008;28;20595;-69
2021/05/18 18:01:16;;;;;;;4.88;3.63;;;;;;;;;;5027957;28;20664;-69
2021/05/18 18:03:41;;;;;;;6.22;4.05;;;;;;;;;;5019865;28;20556;-67
2021/05/18 18:06:06;;;;;;;6.13;4.05;;;;;;;;;;4330266;28;10000765;-67
2021/05/18 18:08:38;;;;;;;6.13;4.50;;;;;;;;;;5017292;28;20189;-67
2021/05/18 18:11:03;;;;;;;7.25;4.85;;;;;;;;;;5028041;28;20182;-68
2021/05/18 18:13:29;;;;;;;8.10;5.47;;;;;;;;;;5016852;28;20207;-67
2021/05/18 18:15:54;;;;;;;6.75;5.78;;;;;;;;;;5027583;28;20200;-68
2021/05/18 18:18:19;;;;;;;6.68;5.68;;;;;;;;;;5025293;28;20198;-69
2021/05/18 18:20:45;;;;;;;7.72;6.25;;;;;;;;;;5016423;28;20304;-67
2021/05/18 18:23:10;;;;;;;8.68;6.43;;;;;;;;;;5028672;28;20290;-69
2021/05/18 18:25:35;;;;;;;8.02;5.95;;;;;;;;;;5016655;28;21299;-69
2021/05/18 18:28:01;;;;;;;9.15;5.82;;;;;;;;;;5024598;28;20185;-68
2021/05/18 18:30:26;;;;;;;8.40;5.72;;;;;;;;;;5018315;28;20584;-68
2021/05/18 18:32:51;;;;;;;13.93;6.63;;;;;;;;;;5025473;28;20205;-69
2021/05/18 18:35:17;;;;;;;6.85;5.10;;;;;;;;;;5015522;28;20216;-69
2021/05/18 18:37:43;;;;;;;10.90;5.78;;;;;;;;;;5028884;28;20194;-69
2021/05/18 18:40:11;;;;;;;9.13;5.40;;;;;;;;;;5015048;28;20187;-68
2021/05/18 18:42:37;;;;;;;11.35;5.63;;;;;;;;;;5024413;28;20204;-70
2021/05/18 18:45:05;;;;;;;14.05;5.63;;;;;;;;;;5009561;28;21194;-69
2021/05/18 18:47:30;;;;;;;6.38;5.15;;;;;;;;;;5024207;28;20321;-69
2021/05/18 18:49:56;;;;;;;10.95;5.80;;;;;;;;;;5027722;28;20899;-69
2021/05/18 18:52:56;;;;;;;7.63;5.80;;;;;;;;;;5017808;28;20189;-68
2021/05/18 18:55:15;;;;;;;9.63;5.75;;;;;;;;;;5022980;28;20333;-69
2021/05/18 18:57:41;;;;;;;7.57;4.95;;;;;;;;;;5017730;28;20190;-67
2021/05/18 19:00:11;;;;;;;10.18;6.03;;;;;;;;;;5023888;28;20273;-67
2021/05/18 19:03:00;;;;;;;10.65;5.78;;;;;;;;;;5016365;28;20210;-68
2021/05/18 19:13:14;;;;;;;10.43;7.00;;;;;;;;;;5028446;28;20533;-69
2021/05/18 19:15:39;;;;;;;10.52;6.55;;;;;;;;;;5024446;28;20198;-69
2021/05/18 19:18:05;;;;;;;10.93;6.35;;;;;;;;;;5015207;28;20331;-69
2021/05/18 19:20:32;;;;;;;8.90;5.88;;;;;;;;;;5024661;28;20194;-71
2021/05/18 19:22:59;;;;;;;10.15;6.90;;;;;;;;;;5014899;28;20194;-69
2021/05/18 19:25:24;;;;;;;10.77;6.65;;;;;;;;;;5024682;28;20589;-69
2021/05/18 19:27:52;;;;;;;11.30;7.07;;;;;;;;;;5016463;28;20205;-68
2021/05/18 19:30:19;;;;;;;13.27;7.45;;;;;;;;;;5021704;28;20217;-68
2021/05/18 19:32:45;;;;;;;9.55;6.85;;;;;;;;;;5011537;28;20689;-68
2021/05/18 19:35:19;;;;;;;10.50;6.93;;;;;;;;;;5018719;28;20197;-68
2021/05/18 19:47:48;;;;;;;9.75;7.32;;;;;;;;;;5021290;28;20190;-68
2021/05/18 19:48:42;;;;;;;10.00;6.97;;;;;;;;;;5010961;28;20229;-69